Airfield :
LOGIN :

Register | Disclaimer

   EN    FR    IT 

 










Legend :    VFR   Marginal VFR   IFR   Intensive IFR   Very Intensive IFR
Visi :
Ceiling :
>= 8 km
>= 3000ft
5 to 8 km
1000 to 3000 ft
1500m to 5 km
500 to 1000 ft
800 to 1500m
200 to 500 ft
< 800m
< 200 ft
Symbols :   Thunderstorms  Fog  Heavy snow  Heavy precipitations  Wind > 20 kt
SIGMETs :     Misc.  Thunderstorms  Icing  Turbulence  Mountain Waves  Volcanic Ashes






- Airport Elevation : 272 ft
- IATA code : MXN


LFRU - Morlaix-Ploujean

CURRENT METAR :
  • 071630Z AUTO 27011KT 240V300 9999 FEW031 17/10 Q1022

EXPIRED METARs :
  • 071600Z AUTO 25012KT 220V290 9999 SCT031 BKN045 18/11 Q1022
  • 071530Z AUTO 24010KT CAVOK 17/12 Q1022
  • 071500Z AUTO 23010KT 9999 FEW029 SCT045 BKN052 19/11 Q1022
  • 071430Z AUTO 24013KT 9999 SCT027 BKN041 BKN047 17/11 Q1022
  • 071400Z AUTO 24011KT 9999 FEW025 BKN052 18/11 Q1022

TAF N/A



MET'MAP, your aeronautical weather chart ! - Copyright ORBIFLY December 2007 - Disclaimer

ORBIFLY MET'MAP TEAM :

Programming & Development : Alexandra Zaïnal
Original concept : Baudouin d'Aumeries
Technical & hardware support : Manuel Goepfert
Assistance : Marc-Olivier Méhu




SOURCES & CREDITS :

   NOAA